createdAt,value
2022-08-12T00:02:04.076Z,39.68
2022-08-12T00:07:26.062Z,39.72
2022-08-12T00:12:46.403Z,40.44
2022-08-12T00:18:08.294Z,40.88
2022-08-12T00:23:31.283Z,41.85
2022-08-12T00:28:53.105Z,42.02
2022-08-12T00:34:16.514Z,41.52
2022-08-12T00:39:38.581Z,41.62
2022-08-12T00:44:43.337Z,41.83
2022-08-12T00:49:50.123Z,41.91
2022-08-12T00:54:56.969Z,42.68
2022-08-12T01:00:01.835Z,42.96
2022-08-12T01:05:27.441Z,42.91
2022-08-12T01:10:49.279Z,43.03
2022-08-12T01:15:54.424Z,43.02
2022-08-12T01:21:11.867Z,43.46
2022-08-12T01:26:19.225Z,43.49
2022-08-12T01:31:23.138Z,43.78
2022-08-12T01:36:27.981Z,44.05
2022-08-12T01:41:33.292Z,44.28
2022-08-12T01:46:44.953Z,44.57
2022-08-12T01:52:14.690Z,44.84
2022-08-12T01:57:58.194Z,45.89
2022-08-12T02:03:05.063Z,46.88
2022-08-12T02:08:36.305Z,46.73
2022-08-12T02:14:17.046Z,46.40
2022-08-12T02:19:39.076Z,47.39
2022-08-12T02:24:43.317Z,47.95
2022-08-12T02:29:48.185Z,47.98
2022-08-12T02:34:51.168Z,48.47
2022-08-12T02:39:56.474Z,50.12
2022-08-12T02:45:06.483Z,50.24
2022-08-12T02:50:11.968Z,49.65
2022-08-12T02:55:34.382Z,50.11
2022-08-12T03:00:39.398Z,50.56
2022-08-12T03:05:49.671Z,50.71
2022-08-12T03:11:00.427Z,50.98
2022-08-12T03:16:07.631Z,50.43
2022-08-12T03:21:13.446Z,50.59
2022-08-12T03:26:16.296Z,50.84
2022-08-12T03:31:22.917Z,51.22
2022-08-12T03:36:28.993Z,51.01
2022-08-12T03:41:35.518Z,51.12
2022-08-12T03:47:00.386Z,51.14
2022-08-12T03:52:21.796Z,50.73
2022-08-12T03:57:42.440Z,50.65
2022-08-12T04:03:00.594Z,50.11
2022-08-12T04:08:03.769Z,49.32
2022-08-12T04:13:19.719Z,50.15
2022-08-12T04:18:24.305Z,50.66
2022-08-12T04:23:27.584Z,51.00
2022-08-12T04:28:30.440Z,50.98
2022-08-12T04:33:35.637Z,50.92
2022-08-12T04:38:39.297Z,50.75
2022-08-12T04:43:54.535Z,51.28
2022-08-12T04:49:06.579Z,50.63
2022-08-12T04:54:09.415Z,52.83
2022-08-12T04:59:12.512Z,52.91
2022-08-12T05:04:17.088Z,53.31
2022-08-12T05:09:20.479Z,52.49
2022-08-12T05:14:24.890Z,53.05
2022-08-12T05:19:30.335Z,52.70
2022-08-12T05:24:33.429Z,52.13
2022-08-12T05:30:06.407Z,51.70
2022-08-12T05:35:06.740Z,51.24
2022-08-12T05:40:11.810Z,51.42
2022-08-12T05:45:14.653Z,51.73
2022-08-12T05:50:19.384Z,50.64
2022-08-12T05:55:24.201Z,49.68
2022-08-12T06:00:31.502Z,49.53
2022-08-12T06:05:43.038Z,49.96
2022-08-12T06:10:57.666Z,49.98
2022-08-12T06:16:00.464Z,49.68
2022-08-12T06:21:04.848Z,49.12
2022-08-12T06:26:12.713Z,48.34
2022-08-12T06:31:26.894Z,48.17
2022-08-12T06:36:33.357Z,46.44
2022-08-12T06:42:28.547Z,46.33
2022-08-12T06:47:18.538Z,45.41
2022-08-12T06:52:24.805Z,45.42
2022-08-12T06:58:08.043Z,44.24
2022-08-12T07:02:51.650Z,44.22
2022-08-12T07:08:15.555Z,43.73
2022-08-12T07:13:18.366Z,42.88
2022-08-12T07:18:21.217Z,41.99
2022-08-12T07:23:25.553Z,40.87
2022-08-12T07:28:30.936Z,39.87
2022-08-12T07:33:33.724Z,40.01
2022-08-12T07:38:40.091Z,38.42
2022-08-12T07:43:47.250Z,36.91
2022-08-12T07:48:51.910Z,36.92
2022-08-12T07:54:00.963Z,35.93
2022-08-12T07:59:08.781Z,36.28
2022-08-12T08:04:29.296Z,35.70
2022-08-12T08:09:33.529Z,34.91
2022-08-12T08:14:36.921Z,34.09
2022-08-12T08:20:03.016Z,33.11
2022-08-12T08:25:05.401Z,33.50
2022-08-12T08:30:29.604Z,33.09
2022-08-12T08:35:47.041Z,32.75
2022-08-12T08:41:09.637Z,30.07
2022-08-12T08:46:14.422Z,30.25
2022-08-12T08:51:17.255Z,28.98
2022-08-12T08:56:21.720Z,28.18
2022-08-12T09:01:24.788Z,26.73
2022-08-12T09:06:37.076Z,27.77
2022-08-12T09:12:11.889Z,27.75
2022-08-12T09:17:21.279Z,25.88
2022-08-12T09:22:28.587Z,25.63
2022-08-12T09:28:15.597Z,25.01
2022-08-12T09:33:05.510Z,24.99
2022-08-12T09:38:28.152Z,24.59
2022-08-12T09:44:00.651Z,25.23
2022-08-12T09:49:16.327Z,25.04
2022-08-12T09:54:34.086Z,24.48
2022-08-12T10:00:15.015Z,23.43
2022-08-12T10:05:02.186Z,23.62
2022-08-12T10:10:05.420Z,24.11
2022-08-12T10:15:15.093Z,23.52
2022-08-12T10:20:35.712Z,22.94
2022-08-12T10:26:33.944Z,23.13
2022-08-12T10:31:21.761Z,23.19
2022-08-12T10:36:40.870Z,22.92
2022-08-12T10:42:04.551Z,23.85
2022-08-12T10:47:26.040Z,22.83
2022-08-12T10:52:38.191Z,22.82
2022-08-12T10:58:12.914Z,22.77
2022-08-12T11:04:24.685Z,21.61
2022-08-12T11:08:34.897Z,21.39
2022-08-12T11:13:48.353Z,22.14
2022-08-12T11:18:55.081Z,21.33
2022-08-12T11:23:59.001Z,20.60
2022-08-12T11:29:05.601Z,20.85
2022-08-12T11:34:51.330Z,20.92
2022-08-12T11:40:03.422Z,21.13
2022-08-12T11:44:55.909Z,20.03
2022-08-12T11:50:00.333Z,20.29
2022-08-12T11:55:04.491Z,20.10
2022-08-12T12:02:00.814Z,20.34
2022-08-12T12:05:41.659Z,19.10
2022-08-12T12:10:44.919Z,18.48
2022-08-12T12:15:49.368Z,19.59
2022-08-12T12:21:00.072Z,19.72
2022-08-12T12:26:08.281Z,19.14
2022-08-12T12:31:15.097Z,19.54
2022-08-12T12:36:36.787Z,19.49
2022-08-12T12:42:43.379Z,18.26
2022-08-12T12:47:02.401Z,18.59
2022-08-12T12:52:18.556Z,19.06
2022-08-12T12:57:36.116Z,19.01
2022-08-12T13:02:55.433Z,18.71
2022-08-12T13:08:01.920Z,18.96
2022-08-12T13:14:07.277Z,18.81
2022-08-12T13:18:31.468Z,18.79
2022-08-12T13:23:37.694Z,18.83
2022-08-12T13:28:43.046Z,18.79
2022-08-12T13:34:33.655Z,17.84
2022-08-12T13:39:10.915Z,18.59
2022-08-12T13:44:14.074Z,17.79
2022-08-12T13:49:17.715Z,18.86
2022-08-12T13:54:41.138Z,18.18
2022-08-12T13:59:48.580Z,17.98
2022-08-12T14:04:58.146Z,17.49
2022-08-12T14:10:19.604Z,18.85
2022-08-12T14:15:36.640Z,18.14
2022-08-12T14:20:40.761Z,17.77
2022-08-12T14:25:51.413Z,16.94
2022-08-12T14:31:00.236Z,17.96
2022-08-12T14:36:06.773Z,17.65
2022-08-12T14:41:14.717Z,17.85
2022-08-12T14:46:19.627Z,18.20
2022-08-12T14:52:54.965Z,18.14
2022-08-12T14:57:20.157Z,18.11
2022-08-12T15:02:20.623Z,18.26
2022-08-12T15:07:33.568Z,18.67
2022-08-12T15:12:50.472Z,19.67
2022-08-12T15:18:02.310Z,19.28
2022-08-12T15:23:05.888Z,19.29
2022-08-12T15:28:24.887Z,19.48
2022-08-12T15:33:37.866Z,19.01
2022-08-12T15:38:48.982Z,18.33
2022-08-12T15:44:37.121Z,19.16
2022-08-12T15:49:19.884Z,18.85
2022-08-12T15:54:33.611Z,18.97
2022-08-12T16:00:00.694Z,18.61
2022-08-12T16:05:03.315Z,19.10
2022-08-12T16:10:30.768Z,19.00
2022-08-12T16:15:37.806Z,19.16
2022-08-12T16:20:46.903Z,19.44
2022-08-12T16:26:05.222Z,19.86
2022-08-12T16:31:14.360Z,19.59
2022-08-12T16:36:18.988Z,19.81
2022-08-12T16:41:23.527Z,20.07
2022-08-12T16:46:32.674Z,20.13
2022-08-12T16:51:40.197Z,20.34
2022-08-12T16:56:51.205Z,20.22
2022-08-12T17:02:02.408Z,20.32
2022-08-12T17:07:10.071Z,21.03
2022-08-12T17:12:17.011Z,23.39
2022-08-12T17:17:38.630Z,21.57
2022-08-12T17:22:42.906Z,19.17
2022-08-12T17:27:57.239Z,19.37
2022-08-12T17:33:02.898Z,21.04
2022-08-12T17:38:13.654Z,20.08
2022-08-12T17:43:57.455Z,19.74
2022-08-12T17:48:55.510Z,19.93
2022-08-12T17:54:11.377Z,22.96
2022-08-12T17:59:47.204Z,23.63
2022-08-12T18:05:05.417Z,25.43
2022-08-12T18:10:08.504Z,25.86
2022-08-12T18:15:26.681Z,26.58
2022-08-12T18:20:44.630Z,27.42
2022-08-12T18:26:14.962Z,26.91
2022-08-12T18:31:23.261Z,27.00
2022-08-12T18:36:29.177Z,27.40
2022-08-12T18:41:35.091Z,27.49
2022-08-12T18:46:48.905Z,27.70
2022-08-12T18:52:04.498Z,28.00
2022-08-12T18:57:16.532Z,28.34
2022-08-12T19:02:23.394Z,28.39
2022-08-12T19:07:29.708Z,28.69
2022-08-12T19:13:09.421Z,29.02
2022-08-12T19:18:13.558Z,29.13
2022-08-12T19:23:20.942Z,29.45
2022-08-12T19:28:29.960Z,29.65
2022-08-12T19:33:37.368Z,29.65
2022-08-12T19:38:46.940Z,29.70
2022-08-12T19:44:18.467Z,29.46
2022-08-12T19:49:23.382Z,29.67
2022-08-12T19:54:30.423Z,29.85
2022-08-12T19:59:43.297Z,30.04
2022-08-12T20:06:03.576Z,30.19
2022-08-12T20:10:36.209Z,29.97
2022-08-12T20:15:43.235Z,30.05
2022-08-12T20:20:48.122Z,30.44
2022-08-12T20:26:01.879Z,30.74
2022-08-12T20:31:07.094Z,30.80
2022-08-12T20:36:39.977Z,31.29
2022-08-12T20:41:36.794Z,31.26
2022-08-12T20:46:39.703Z,31.52
2022-08-12T20:51:55.424Z,31.62
2022-08-12T20:57:00.982Z,32.15
2022-08-12T21:02:04.710Z,32.05
2022-08-12T21:07:10.348Z,32.78
2022-08-12T21:12:28.222Z,32.58
2022-08-12T21:18:00.700Z,32.85
2022-08-12T21:23:05.723Z,33.30
2022-08-12T21:28:10.344Z,33.08
2022-08-12T21:33:16.955Z,33.30
2022-08-12T21:38:19.921Z,33.59
2022-08-12T21:43:29.069Z,34.07
2022-08-12T21:48:48.350Z,33.82
2022-08-12T21:54:07.583Z,34.07
2022-08-12T21:59:14.734Z,33.96
2022-08-12T22:04:35.960Z,34.70
2022-08-12T22:09:42.857Z,34.71
2022-08-12T22:14:47.800Z,34.80
2022-08-12T22:19:50.771Z,35.01
2022-08-12T22:24:53.798Z,35.24
2022-08-12T22:30:20.397Z,35.13
2022-08-12T22:35:56.663Z,35.61
2022-08-12T22:40:58.363Z,35.59
2022-08-12T22:46:23.516Z,35.52
2022-08-12T22:52:00.606Z,35.94
2022-08-12T22:56:57.748Z,36.45
2022-08-12T23:02:07.583Z,36.28
2022-08-12T23:07:14.317Z,36.57
2022-08-12T23:12:46.565Z,36.55
2022-08-12T23:17:51.251Z,36.47
2022-08-12T23:23:02.899Z,36.73
2022-08-12T23:28:30.955Z,37.26
2022-08-12T23:33:59.965Z,36.88
2022-08-12T23:39:02.007Z,37.26
2022-08-12T23:44:07.007Z,37.40
2022-08-12T23:49:26.765Z,37.74
2022-08-12T23:54:43.985Z,38.31
2022-08-12T23:59:55.689Z,38.31
